Time;durP1;ratioP1;P1;durP2;ratioP2;P2;SDS_P1;SDS_P2;PMS_P1;PMS_P2;Temp;Humidity;BMP_temperature;BMP_pressure;BME280_temperature;BME280_humidity;BME280_pressure;Samples;Min_cycle;Max_cycle;Signal;HPM_P1;HPM_P2
2022/07/08 00:00:21;;;;;;;1.80;0.97;;;;;;;;;;5029454;28;20199;-38
2022/07/08 00:02:48;;;;;;;1.17;0.90;;;;;;;;;;5031583;28;20289;-37
2022/07/08 00:05:18;;;;;;;2.13;1.20;;;;;;;;;;5014289;28;20217;-40
2022/07/08 00:07:46;;;;;;;0.83;0.83;;;;;;;;;;5012867;28;20289;-39
2022/07/08 00:10:13;;;;;;;3.07;1.10;;;;;;;;;;5033836;28;20199;-40
2022/07/08 00:12:41;;;;;;;1.83;0.80;;;;;;;;;;5034015;28;20210;-36
2022/07/08 00:15:09;;;;;;;2.87;1.10;;;;;;;;;;5031996;28;20261;-34
2022/07/08 00:17:36;;;;;;;2.53;1.00;;;;;;;;;;5035389;28;20223;-39
2022/07/08 00:20:04;;;;;;;1.80;1.00;;;;;;;;;;5022283;28;20212;-39
2022/07/08 00:22:31;;;;;;;2.73;1.10;;;;;;;;;;5035008;28;20668;-38
2022/07/08 00:24:59;;;;;;;1.03;0.93;;;;;;;;;;5033821;28;20203;-39
2022/07/08 00:27:26;;;;;;;2.97;1.30;;;;;;;;;;5035026;28;20245;-37
2022/07/08 00:29:53;;;;;;;1.40;1.00;;;;;;;;;;5020171;28;20203;-39
2022/07/08 00:32:21;;;;;;;1.30;0.93;;;;;;;;;;5018424;28;20211;-35
2022/07/08 00:34:48;;;;;;;3.13;1.50;;;;;;;;;;5020977;28;20207;-37
2022/07/08 00:37:15;;;;;;;3.17;1.10;;;;;;;;;;5025128;28;20227;-39
2022/07/08 00:39:42;;;;;;;2.53;1.37;;;;;;;;;;5031711;28;20361;-36
2022/07/08 00:42:11;;;;;;;1.73;1.03;;;;;;;;;;5030524;28;20214;-33
2022/07/08 00:44:38;;;;;;;1.77;1.10;;;;;;;;;;5034383;28;20202;-36
2022/07/08 00:47:05;;;;;;;1.87;1.10;;;;;;;;;;5027982;28;20231;-41
2022/07/08 00:49:33;;;;;;;2.40;1.10;;;;;;;;;;5024503;28;20210;-39
2022/07/08 00:52:00;;;;;;;2.33;1.20;;;;;;;;;;5021761;28;20207;-40
2022/07/08 00:54:28;;;;;;;2.57;1.20;;;;;;;;;;5034318;28;20207;-39
2022/07/08 00:56:56;;;;;;;2.27;1.10;;;;;;;;;;5028463;28;20254;-36
2022/07/08 00:59:24;;;;;;;7.40;1.40;;;;;;;;;;5020599;28;20257;-38
2022/07/08 01:01:52;;;;;;;3.03;1.03;;;;;;;;;;5016983;28;20214;-36
2022/07/08 01:04:19;;;;;;;1.57;1.20;;;;;;;;;;5009938;28;20207;-43
2022/07/08 01:06:47;;;;;;;3.87;1.40;;;;;;;;;;5018356;28;20238;-36
2022/07/08 01:09:15;;;;;;;1.97;1.03;;;;;;;;;;5020712;28;20203;-41
2022/07/08 01:11:45;;;;;;;1.30;1.00;;;;;;;;;;5013777;28;20281;-39
2022/07/08 01:14:12;;;;;;;4.30;1.50;;;;;;;;;;5013538;28;20301;-42
2022/07/08 01:16:41;;;;;;;2.23;1.27;;;;;;;;;;5021399;28;20233;-35
2022/07/08 01:19:08;;;;;;;7.13;1.60;;;;;;;;;;5025963;28;20203;-42
2022/07/08 01:21:36;;;;;;;3.13;1.00;;;;;;;;;;5012211;28;20210;-34
2022/07/08 01:24:04;;;;;;;4.40;1.30;;;;;;;;;;5022818;28;20199;-39
2022/07/08 01:26:31;;;;;;;3.87;1.50;;;;;;;;;;5031017;28;20219;-39
2022/07/08 01:28:58;;;;;;;4.87;1.50;;;;;;;;;;5028145;28;20328;-38
2022/07/08 01:31:26;;;;;;;4.50;1.50;;;;;;;;;;5029142;28;20233;-40
2022/07/08 01:33:53;;;;;;;2.73;1.33;;;;;;;;;;5023001;28;20203;-38
2022/07/08 01:36:20;;;;;;;2.50;1.30;;;;;;;;;;5015843;28;20229;-40
2022/07/08 01:38:49;;;;;;;4.07;1.43;;;;;;;;;;5015355;28;20250;-36
2022/07/08 01:41:16;;;;;;;4.63;1.30;;;;;;;;;;5012850;28;20262;-38
2022/07/08 01:43:43;;;;;;;6.87;1.83;;;;;;;;;;5011121;28;20199;-37
2022/07/08 01:46:10;;;;;;;4.00;1.43;;;;;;;;;;5020346;28;20233;-36
2022/07/08 01:48:37;;;;;;;2.63;1.40;;;;;;;;;;5019107;28;20222;-40
2022/07/08 01:51:05;;;;;;;4.80;1.47;;;;;;;;;;5022796;28;20214;-41
2022/07/08 01:53:32;;;;;;;2.60;1.63;;;;;;;;;;5029796;28;20206;-38
2022/07/08 01:56:00;;;;;;;2.27;1.60;;;;;;;;;;5030372;28;20203;-37
2022/07/08 01:58:28;;;;;;;4.27;1.70;;;;;;;;;;5018530;28;20213;-34
2022/07/08 02:00:55;;;;;;;3.00;1.43;;;;;;;;;;5022188;28;20268;-38
2022/07/08 02:03:22;;;;;;;2.07;1.50;;;;;;;;;;5026600;28;20217;-40
2022/07/08 02:05:49;;;;;;;3.63;1.50;;;;;;;;;;5019630;28;20202;-41
2022/07/08 02:08:16;;;;;;;6.00;2.07;;;;;;;;;;5024850;28;20214;-36
2022/07/08 02:13:29;;;;;;;4.50;1.87;;;;;;;;;;5020800;28;20214;-36
2022/07/08 02:15:57;;;;;;;2.57;1.30;;;;;;;;;;5030403;28;20214;-37
2022/07/08 02:18:24;;;;;;;4.57;2.30;;;;;;;;;;5024621;28;20214;-37
2022/07/08 02:20:51;;;;;;;4.30;2.30;;;;;;;;;;5024180;28;20217;-38
2022/07/08 02:23:19;;;;;;;7.10;1.67;;;;;;;;;;5029668;28;20214;-37
2022/07/08 02:25:46;;;;;;;2.77;1.70;;;;;;;;;;5030311;28;20206;-38
2022/07/08 02:28:13;;;;;;;2.23;1.60;;;;;;;;;;5027002;28;20231;-37
2022/07/08 02:30:41;;;;;;;1.80;1.63;;;;;;;;;;5016953;28;20208;-38
2022/07/08 02:33:08;;;;;;;3.40;1.60;;;;;;;;;;5022255;28;20203;-38
2022/07/08 02:35:37;;;;;;;6.03;1.73;;;;;;;;;;5027944;28;20207;-36
2022/07/08 02:38:05;;;;;;;2.40;1.70;;;;;;;;;;5036157;28;20237;-35
2022/07/08 02:40:32;;;;;;;5.37;1.80;;;;;;;;;;5036673;28;20187;-36
2022/07/08 02:42:59;;;;;;;5.17;2.03;;;;;;;;;;5032707;28;20214;-40
2022/07/08 02:45:26;;;;;;;5.70;1.63;;;;;;;;;;5027264;28;20221;-37
2022/07/08 02:47:55;;;;;;;3.13;1.80;;;;;;;;;;5019207;28;20235;-37
2022/07/08 02:50:22;;;;;;;3.17;1.70;;;;;;;;;;5017695;28;20225;-37
2022/07/08 02:52:49;;;;;;;2.70;1.80;;;;;;;;;;5030571;28;20205;-33
2022/07/08 02:55:16;;;;;;;4.83;1.70;;;;;;;;;;5024771;28;20218;-40
2022/07/08 02:57:44;;;;;;;4.60;1.80;;;;;;;;;;5025430;28;20312;-40
2022/07/08 03:00:11;;;;;;;5.80;1.63;;;;;;;;;;5034400;28;20195;-39
2022/07/08 03:02:38;;;;;;;3.20;1.87;;;;;;;;;;5019583;28;20210;-36
2022/07/08 03:05:07;;;;;;;3.90;1.50;;;;;;;;;;5015036;28;20214;-36
2022/07/08 03:07:34;;;;;;;3.23;1.80;;;;;;;;;;5027497;28;20230;-33
2022/07/08 03:10:01;;;;;;;3.30;1.57;;;;;;;;;;5033643;28;20206;-36
2022/07/08 03:12:29;;;;;;;6.33;1.90;;;;;;;;;;5029211;28;20213;-35
2022/07/08 03:14:56;;;;;;;5.67;2.00;;;;;;;;;;5032951;28;20207;-40
2022/07/08 03:17:23;;;;;;;4.60;2.13;;;;;;;;;;5026927;28;20278;-36
2022/07/08 03:19:51;;;;;;;5.53;1.87;;;;;;;;;;5019052;28;20297;-43
2022/07/08 03:22:19;;;;;;;3.43;2.03;;;;;;;;;;5033050;28;20416;-39
2022/07/08 03:24:46;;;;;;;2.30;1.60;;;;;;;;;;5033494;28;20222;-32
2022/07/08 03:27:15;;;;;;;3.50;1.70;;;;;;;;;;5028507;28;20230;-42
2022/07/08 03:29:42;;;;;;;3.37;1.67;;;;;;;;;;5031882;28;20234;-36
2022/07/08 03:32:09;;;;;;;7.33;1.90;;;;;;;;;;5021960;28;20211;-37
2022/07/08 03:34:36;;;;;;;4.60;1.80;;;;;;;;;;5020669;28;20203;-35
2022/07/08 03:39:33;;;;;;;2.90;1.50;;;;;;;;;;5050937;28;20214;-44
2022/07/08 03:41:59;;;;;;;6.30;2.10;;;;;;;;;;5052661;28;20385;-44
2022/07/08 03:44:26;;;;;;;2.67;1.37;;;;;;;;;;5040612;28;20232;-42
2022/07/08 03:46:53;;;;;;;2.30;1.40;;;;;;;;;;5047233;28;20225;-47
2022/07/08 03:49:20;;;;;;;4.23;1.97;;;;;;;;;;5046648;28;20230;-41
2022/07/08 03:51:48;;;;;;;5.50;1.80;;;;;;;;;;5051561;28;20221;-40
2022/07/08 03:54:15;;;;;;;3.17;1.47;;;;;;;;;;5045679;28;20205;-40
2022/07/08 03:56:43;;;;;;;4.73;2.00;;;;;;;;;;5054453;28;20229;-41
2022/07/08 03:59:10;;;;;;;4.90;2.20;;;;;;;;;;5049522;28;20201;-43
2022/07/08 04:01:38;;;;;;;2.40;1.40;;;;;;;;;;5041748;28;20216;-41
2022/07/08 04:04:05;;;;;;;4.10;1.80;;;;;;;;;;5047188;28;20210;-39
2022/07/08 04:06:32;;;;;;;4.73;1.93;;;;;;;;;;5036502;28;20230;-38
2022/07/08 04:08:59;;;;;;;4.70;2.13;;;;;;;;;;5042410;28;20214;-40
2022/07/08 04:11:26;;;;;;;4.20;1.90;;;;;;;;;;5034473;28;20206;-38
2022/07/08 04:13:54;;;;;;;2.77;1.57;;;;;;;;;;5041313;28;20205;-40
2022/07/08 04:16:21;;;;;;;2.67;1.60;;;;;;;;;;5048154;28;20542;-41
2022/07/08 04:18:49;;;;;;;4.23;1.43;;;;;;;;;;5042035;28;20194;-41
2022/07/08 04:21:16;;;;;;;4.70;1.70;;;;;;;;;;5038995;28;20217;-45
2022/07/08 04:23:43;;;;;;;4.10;1.60;;;;;;;;;;5044854;28;20206;-43
2022/07/08 04:26:10;;;;;;;2.63;1.70;;;;;;;;;;5036074;28;20222;-44
2022/07/08 04:28:37;;;;;;;2.67;1.43;;;;;;;;;;5034872;28;20248;-37
2022/07/08 04:31:06;;;;;;;5.47;1.67;;;;;;;;;;5040801;28;20202;-36
2022/07/08 04:33:33;;;;;;;4.50;1.73;;;;;;;;;;5044199;28;20272;-40
2022/07/08 04:36:00;;;;;;;6.43;1.80;;;;;;;;;;5041464;28;20211;-36
2022/07/08 04:38:27;;;;;;;5.83;1.67;;;;;;;;;;5046932;28;20213;-41
2022/07/08 04:40:54;;;;;;;8.00;1.90;;;;;;;;;;5053932;28;20690;-41
2022/07/08 04:43:21;;;;;;;4.57;1.63;;;;;;;;;;5037361;28;20236;-44
2022/07/08 04:45:48;;;;;;;2.77;1.50;;;;;;;;;;5043574;28;20213;-44
2022/07/08 04:48:17;;;;;;;3.70;1.63;;;;;;;;;;5046461;28;20229;-40
2022/07/08 04:51:02;;;;;;;6.40;1.90;;;;;;;;;;5038788;28;20214;-40
2022/07/08 04:53:30;;;;;;;3.93;1.80;;;;;;;;;;5038363;28;20202;-39
2022/07/08 04:55:57;;;;;;;1.50;1.40;;;;;;;;;;5053590;28;20210;-46
2022/07/08 04:58:24;;;;;;;1.97;1.53;;;;;;;;;;5042830;28;20453;-43
2022/07/08 05:00:51;;;;;;;3.13;1.60;;;;;;;;;;5038555;28;20212;-41
2022/07/08 05:03:19;;;;;;;6.40;1.70;;;;;;;;;;5042788;28;20220;-42
2022/07/08 05:05:46;;;;;;;3.47;1.50;;;;;;;;;;5044195;28;20202;-46
2022/07/08 05:08:13;;;;;;;2.93;1.70;;;;;;;;;;5038934;28;20229;-42
2022/07/08 05:10:40;;;;;;;4.90;1.80;;;;;;;;;;5038406;28;20213;-40
2022/07/08 05:13:08;;;;;;;2.33;1.40;;;;;;;;;;5032935;28;20939;-39
2022/07/08 05:15:35;;;;;;;4.47;1.47;;;;;;;;;;5033100;28;20643;-41
2022/07/08 05:18:02;;;;;;;4.23;1.30;;;;;;;;;;5032849;28;20225;-44
2022/07/08 05:20:31;;;;;;;3.63;1.77;;;;;;;;;;5040745;28;20202;-40
2022/07/08 05:22:58;;;;;;;4.73;1.60;;;;;;;;;;5041140;28;20202;-44
2022/07/08 05:25:25;;;;;;;3.63;1.30;;;;;;;;;;5033574;28;20242;-42
2022/07/08 05:27:52;;;;;;;5.43;1.60;;;;;;;;;;5037894;28;20261;-42
2022/07/08 05:30:20;;;;;;;1.80;1.10;;;;;;;;;;5040025;28;20250;-41
2022/07/08 05:32:47;;;;;;;2.90;1.23;;;;;;;;;;5049404;28;20205;-42
2022/07/08 05:35:14;;;;;;;3.70;1.67;;;;;;;;;;5036421;28;20205;-38
2022/07/08 05:37:43;;;;;;;2.77;1.53;;;;;;;;;;5044521;28;20232;-40
2022/07/08 05:40:11;;;;;;;3.83;1.40;;;;;;;;;;5053019;28;20204;-36
2022/07/08 05:42:38;;;;;;;2.23;1.40;;;;;;;;;;5044361;28;20206;-41
2022/07/08 05:45:06;;;;;;;2.50;0.97;;;;;;;;;;5045571;28;20213;-42
2022/07/08 05:47:33;;;;;;;4.43;1.20;;;;;;;;;;5048276;28;20229;-39
2022/07/08 05:50:01;;;;;;;3.70;1.37;;;;;;;;;;5045999;28;20571;-38
2022/07/08 05:52:28;;;;;;;3.33;1.40;;;;;;;;;;5033852;28;20217;-45
2022/07/08 05:54:56;;;;;;;2.30;1.20;;;;;;;;;;5049906;28;20236;-42
2022/07/08 05:57:24;;;;;;;3.60;1.03;;;;;;;;;;5049670;28;20534;-41
2022/07/08 05:59:51;;;;;;;2.30;1.37;;;;;;;;;;5041578;28;20208;-38
2022/07/08 06:02:18;;;;;;;5.20;1.30;;;;;;;;;;5040705;28;20284;-43
2022/07/08 06:04:45;;;;;;;4.57;1.50;;;;;;;;;;5038949;28;20280;-42
2022/07/08 06:07:12;;;;;;;1.73;1.00;;;;;;;;;;5034250;28;20221;-36
2022/07/08 06:09:40;;;;;;;2.17;1.10;;;;;;;;;;5036982;28;20214;-45
2022/07/08 06:12:09;;;;;;;4.67;1.30;;;;;;;;;;5035756;28;20198;-45
2022/07/08 06:14:36;;;;;;;2.70;1.25;;;;;;;;;;5047654;28;20213;-42
2022/07/08 06:17:03;;;;;;;3.47;1.23;;;;;;;;;;5052164;28;20214;-40
2022/07/08 06:19:30;;;;;;;2.25;1.23;;;;;;;;;;5044035;28;20209;-42
2022/07/08 06:21:58;;;;;;;3.10;1.40;;;;;;;;;;5037456;28;20218;-42
2022/07/08 06:24:25;;;;;;;3.00;0.98;;;;;;;;;;5037450;28;20213;-40
2022/07/08 06:26:52;;;;;;;6.95;1.40;;;;;;;;;;5033509;28;20253;-39
2022/07/08 06:29:21;;;;;;;3.13;1.10;;;;;;;;;;5042671;28;20667;-42
2022/07/08 06:31:48;;;;;;;3.28;1.45;;;;;;;;;;5035683;28;20234;-42
2022/07/08 06:34:19;;;;;;;2.13;1.20;;;;;;;;;;5028609;28;20257;-45
2022/07/08 06:36:46;;;;;;;3.45;1.40;;;;;;;;;;5034970;28;20722;-41
2022/07/08 06:39:13;;;;;;;5.40;1.58;;;;;;;;;;5043061;28;20206;-44
2022/07/08 06:41:40;;;;;;;5.47;1.55;;;;;;;;;;5040099;28;20210;-43
2022/07/08 06:44:07;;;;;;;3.83;1.25;;;;;;;;;;5049793;28;20206;-43
2022/07/08 06:46:36;;;;;;;4.07;1.40;;;;;;;;;;5037410;28;20245;-42
2022/07/08 06:49:03;;;;;;;3.88;1.05;;;;;;;;;;5031265;28;20231;-44
2022/07/08 06:51:30;;;;;;;3.40;1.40;;;;;;;;;;5050540;28;20301;-42
2022/07/08 06:56:42;;;;;;;3.67;1.20;;;;;;;;;;5041814;28;20226;-42
2022/07/08 06:59:12;;;;;;;3.95;1.38;;;;;;;;;;5051499;28;20208;-41
2022/07/08 07:01:41;;;;;;;3.00;1.10;;;;;;;;;;5052235;28;20196;-45
2022/07/08 07:04:09;;;;;;;3.92;1.40;;;;;;;;;;5041628;28;20282;-40
2022/07/08 07:06:37;;;;;;;2.90;1.20;;;;;;;;;;5040343;28;20287;-41
2022/07/08 07:09:10;;;;;;;3.20;1.55;;;;;;;;;;5037052;28;20247;-39
2022/07/08 07:11:38;;;;;;;2.58;1.13;;;;;;;;;;5050585;28;20204;-43
2022/07/08 07:14:05;;;;;;;4.53;1.00;;;;;;;;;;5032851;28;20204;-41
2022/07/08 07:16:32;;;;;;;4.05;1.05;;;;;;;;;;5031914;28;20235;-42
2022/07/08 07:19:01;;;;;;;5.60;1.30;;;;;;;;;;5032965;28;20203;-40
2022/07/08 07:21:28;;;;;;;3.35;1.13;;;;;;;;;;5035270;28;20210;-37
2022/07/08 07:23:55;;;;;;;3.17;1.20;;;;;;;;;;5039596;28;20219;-41
2022/07/08 07:26:22;;;;;;;2.70;1.00;;;;;;;;;;5055316;28;20229;-44
2022/07/08 07:28:49;;;;;;;3.90;1.08;;;;;;;;;;5038227;28;20207;-40
2022/07/08 07:31:17;;;;;;;4.10;1.07;;;;;;;;;;5035419;28;20210;-45
2022/07/08 07:33:44;;;;;;;2.43;1.10;;;;;;;;;;5034387;28;20198;-45
2022/07/08 07:36:12;;;;;;;1.97;1.10;;;;;;;;;;5040485;28;20237;-44
2022/07/08 07:38:39;;;;;;;1.60;1.00;;;;;;;;;;5037514;28;20221;-40
2022/07/08 07:41:07;;;;;;;2.73;1.17;;;;;;;;;;5044249;28;20212;-43
2022/07/08 07:43:34;;;;;;;3.80;0.97;;;;;;;;;;5040496;28;20202;-40
2022/07/08 07:46:02;;;;;;;3.13;1.20;;;;;;;;;;5035584;28;20206;-42
2022/07/08 07:48:29;;;;;;;2.57;1.00;;;;;;;;;;5033549;28;20209;-38
2022/07/08 07:50:56;;;;;;;2.00;1.13;;;;;;;;;;5042390;28;20222;-43
2022/07/08 07:53:24;;;;;;;2.97;1.10;;;;;;;;;;5031901;28;20212;-44
2022/07/08 07:55:51;;;;;;;3.90;1.30;;;;;;;;;;5043247;28;20209;-43
2022/07/08 07:58:19;;;;;;;4.37;1.40;;;;;;;;;;5054554;28;20215;-44
2022/07/08 08:00:46;;;;;;;5.07;1.33;;;;;;;;;;5053530;28;20202;-43
2022/07/08 08:03:13;;;;;;;1.87;1.10;;;;;;;;;;5044395;28;20683;-46
2022/07/08 08:05:42;;;;;;;2.07;1.20;;;;;;;;;;5047613;28;20256;-42
2022/07/08 08:08:09;;;;;;;3.07;0.87;;;;;;;;;;5035585;28;20228;-40
2022/07/08 08:10:38;;;;;;;4.63;1.50;;;;;;;;;;5046457;28;20228;-46
2022/07/08 08:13:05;;;;;;;2.43;1.00;;;;;;;;;;5043822;28;20202;-41
2022/07/08 08:15:32;;;;;;;1.60;1.07;;;;;;;;;;5035159;28;20217;-39
2022/07/08 08:18:00;;;;;;;4.00;1.43;;;;;;;;;;5036200;28;20228;-44
2022/07/08 08:20:28;;;;;;;2.70;1.10;;;;;;;;;;5035180;28;20222;-42
2022/07/08 08:22:55;;;;;;;3.67;1.10;;;;;;;;;;5034332;28;20213;-45
2022/07/08 08:25:22;;;;;;;3.03;1.30;;;;;;;;;;5039753;28;20304;-42
2022/07/08 08:27:51;;;;;;;1.30;0.90;;;;;;;;;;5042897;28;20243;-42
2022/07/08 08:30:18;;;;;;;4.77;1.50;;;;;;;;;;5034130;28;20380;-43
2022/07/08 08:32:46;;;;;;;3.37;1.60;;;;;;;;;;5034760;28;20206;-43
2022/07/08 08:35:13;;;;;;;3.60;1.00;;;;;;;;;;5043483;28;20668;-42
2022/07/08 08:37:40;;;;;;;4.80;1.30;;;;;;;;;;5038971;28;20247;-38
2022/07/08 08:40:09;;;;;;;4.07;1.13;;;;;;;;;;5037789;28;20663;-36
2022/07/08 08:42:38;;;;;;;4.60;1.23;;;;;;;;;;5052045;28;20239;-34
2022/07/08 08:45:07;;;;;;;3.70;1.27;;;;;;;;;;5044920;28;20198;-39
2022/07/08 08:47:36;;;;;;;3.40;1.00;;;;;;;;;;5039793;28;20279;-42
2022/07/08 08:52:45;;;;;;;2.37;1.00;;;;;;;;;;5037703;28;20209;-40
2022/07/08 08:55:12;;;;;;;3.50;0.90;;;;;;;;;;5046549;28;20197;-41
2022/07/08 08:57:40;;;;;;;1.97;0.73;;;;;;;;;;5054990;28;20236;-42
2022/07/08 09:00:09;;;;;;;3.37;1.20;;;;;;;;;;5049041;28;20209;-45
2022/07/08 09:02:36;;;;;;;4.47;1.10;;;;;;;;;;5047699;28;20267;-39
2022/07/08 09:05:04;;;;;;;3.93;1.17;;;;;;;;;;5036502;28;20214;-42
2022/07/08 09:07:32;;;;;;;2.53;1.30;;;;;;;;;;5042633;28;20255;-47
2022/07/08 09:09:59;;;;;;;1.77;0.90;;;;;;;;;;5034092;28;20309;-43
2022/07/08 09:12:26;;;;;;;4.37;1.20;;;;;;;;;;5033867;28;20213;-42
2022/07/08 09:14:54;;;;;;;1.43;1.03;;;;;;;;;;5039367;28;20209;-46
2022/07/08 09:17:22;;;;;;;1.97;1.00;;;;;;;;;;5052774;28;20233;-44
2022/07/08 09:19:51;;;;;;;2.60;0.93;;;;;;;;;;5042540;28;20213;-42
2022/07/08 09:22:19;;;;;;;3.03;1.30;;;;;;;;;;5051167;28;20208;-37
2022/07/08 09:24:46;;;;;;;1.80;0.93;;;;;;;;;;5053679;28;20219;-44
2022/07/08 09:27:13;;;;;;;3.70;1.23;;;;;;;;;;5051125;28;20228;-40
2022/07/08 09:29:41;;;;;;;2.60;1.10;;;;;;;;;;5042548;28;20248;-42
2022/07/08 09:35:14;;;;;;;2.93;1.13;;;;;;;;;;5032510;28;20192;-40
2022/07/08 09:37:41;;;;;;;4.63;1.10;;;;;;;;;;5041874;28;20234;-43
2022/07/08 09:45:13;;;;;;;1.57;0.80;;;;;;;;;;5020849;28;20225;-42
2022/07/08 09:47:40;;;;;;;5.60;1.00;;;;;;;;;;5024224;28;20230;-39
2022/07/08 09:50:09;;;;;;;3.70;1.03;;;;;;;;;;5015398;28;20249;-40
2022/07/08 09:52:38;;;;;;;5.97;1.07;;;;;;;;;;5024836;28;20202;-43
2022/07/08 09:55:06;;;;;;;2.10;1.00;;;;;;;;;;5030361;28;20206;-39
2022/07/08 09:57:33;;;;;;;3.73;0.90;;;;;;;;;;5019860;28;20232;-42
2022/07/08 10:00:00;;;;;;;3.50;1.20;;;;;;;;;;5029885;28;20206;-44
2022/07/08 10:02:29;;;;;;;1.77;0.90;;;;;;;;;;5024151;28;20210;-41
2022/07/08 10:04:56;;;;;;;1.93;1.20;;;;;;;;;;5018035;28;20212;-43
2022/07/08 10:07:23;;;;;;;7.67;1.00;;;;;;;;;;5030544;28;20234;-39
2022/07/08 10:09:52;;;;;;;5.07;1.50;;;;;;;;;;5030146;28;20232;-44
2022/07/08 10:12:20;;;;;;;6.70;1.13;;;;;;;;;;5031021;28;20217;-41
2022/07/08 10:14:48;;;;;;;2.67;1.00;;;;;;;;;;5024145;28;20217;-39
2022/07/08 10:17:17;;;;;;;3.00;1.00;;;;;;;;;;5022774;28;20240;-44
2022/07/08 10:19:46;;;;;;;2.77;0.90;;;;;;;;;;5016478;28;20310;-44
2022/07/08 10:22:15;;;;;;;2.37;1.00;;;;;;;;;;5029219;28;20204;-44
2022/07/08 10:24:43;;;;;;;3.33;1.07;;;;;;;;;;5029898;28;20218;-41
2022/07/08 10:27:11;;;;;;;2.23;1.00;;;;;;;;;;5020363;28;20333;-40
2022/07/08 10:29:40;;;;;;;3.27;0.70;;;;;;;;;;5022747;28;20221;-42
2022/07/08 10:32:22;;;;;;;1.27;0.80;;;;;;;;;;5025648;28;20217;-44
2022/07/08 10:35:07;;;;;;;2.23;0.87;;;;;;;;;;5019229;28;20213;-41
2022/07/08 10:37:47;;;;;;;1.90;1.10;;;;;;;;;;5032151;28;20236;-41
2022/07/08 10:40:14;;;;;;;2.47;0.90;;;;;;;;;;5032928;28;20202;-42
2022/07/08 10:42:45;;;;;;;3.77;1.40;;;;;;;;;;5018186;28;20650;-42
2022/07/08 10:45:16;;;;;;;4.33;1.30;;;;;;;;;;5024209;28;20224;-37
2022/07/08 10:47:43;;;;;;;3.50;1.30;;;;;;;;;;5020805;28;20233;-38
2022/07/08 10:50:10;;;;;;;7.67;1.60;;;;;;;;;;5020114;28;20221;-44
2022/07/08 10:52:41;;;;;;;4.27;1.10;;;;;;;;;;5025519;28;20582;-44
2022/07/08 10:55:09;;;;;;;2.93;0.97;;;;;;;;;;5033824;28;20208;-37
2022/07/08 10:57:36;;;;;;;2.57;1.20;;;;;;;;;;5025864;28;20234;-40
2022/07/08 11:00:07;;;;;;;2.70;1.00;;;;;;;;;;5024292;28;20223;-42
2022/07/08 11:02:39;;;;;;;4.10;1.10;;;;;;;;;;5021311;28;20204;-45
2022/07/08 11:05:07;;;;;;;3.00;1.03;;;;;;;;;;5019485;28;20620;-43
2022/07/08 11:07:34;;;;;;;1.70;1.03;;;;;;;;;;5027166;28;20239;-41
2022/07/08 11:10:06;;;;;;;4.70;1.10;;;;;;;;;;5031278;28;20208;-39
2022/07/08 11:12:34;;;;;;;3.07;1.00;;;;;;;;;;5032036;28;20209;-39
2022/07/08 11:15:02;;;;;;;5.10;1.20;;;;;;;;;;5029849;28;20209;-42
2022/07/08 11:17:31;;;;;;;2.80;1.07;;;;;;;;;;5034217;28;20227;-41
2022/07/08 11:19:59;;;;;;;3.10;1.10;;;;;;;;;;5032633;28;20226;-44
2022/07/08 11:22:27;;;;;;;3.93;1.00;;;;;;;;;;5034989;28;20219;-43
2022/07/08 11:24:55;;;;;;;3.80;1.33;;;;;;;;;;5035354;28;20201;-41
2022/07/08 11:27:25;;;;;;;3.03;1.33;;;;;;;;;;5031450;28;20240;-43
2022/07/08 11:29:53;;;;;;;3.10;1.37;;;;;;;;;;5022743;28;20214;-41
2022/07/08 11:32:21;;;;;;;3.73;0.90;;;;;;;;;;5034864;28;20212;-44
2022/07/08 11:34:50;;;;;;;2.93;0.93;;;;;;;;;;5017123;28;20234;-41
2022/07/08 11:37:17;;;;;;;2.30;1.00;;;;;;;;;;5024211;28;20237;-45
2022/07/08 11:39:45;;;;;;;2.03;1.20;;;;;;;;;;5032842;28;20208;-41
2022/07/08 11:42:12;;;;;;;2.53;1.17;;;;;;;;;;5029081;28;20244;-42
2022/07/08 11:44:39;;;;;;;2.47;1.23;;;;;;;;;;5028363;28;20309;-42
2022/07/08 11:47:07;;;;;;;2.40;1.20;;;;;;;;;;5032015;28;20314;-44
2022/07/08 11:49:35;;;;;;;2.90;1.00;;;;;;;;;;5020368;28;20214;-43
2022/07/08 11:52:03;;;;;;;4.03;1.00;;;;;;;;;;5024740;28;20255;-43
2022/07/08 11:54:30;;;;;;;1.87;1.20;;;;;;;;;;5032364;28;20205;-43
2022/07/08 11:56:58;;;;;;;2.23;0.93;;;;;;;;;;5024071;28;20237;-40
2022/07/08 11:59:26;;;;;;;1.50;0.70;;;;;;;;;;5026162;28;20205;-40
2022/07/08 12:01:54;;;;;;;3.50;1.10;;;;;;;;;;5032393;28;20213;-42
2022/07/08 12:04:21;;;;;;;3.20;0.93;;;;;;;;;;5023568;28;20205;-42
2022/07/08 12:06:49;;;;;;;2.93;0.93;;;;;;;;;;5022772;28;20241;-41
2022/07/08 12:09:18;;;;;;;4.33;0.97;;;;;;;;;;5023568;28;20224;-44
2022/07/08 12:11:46;;;;;;;3.77;1.10;;;;;;;;;;5022842;28;20240;-38
2022/07/08 12:14:18;;;;;;;3.17;1.07;;;;;;;;;;5027889;28;20219;-41
2022/07/08 12:16:46;;;;;;;11.47;1.97;;;;;;;;;;5032276;28;20236;-41
2022/07/08 12:19:27;;;;;;;2.57;1.20;;;;;;;;;;5025346;28;20242;-44
2022/07/08 12:21:54;;;;;;;3.17;1.00;;;;;;;;;;5023204;28;20232;-43
2022/07/08 12:24:27;;;;;;;5.20;1.17;;;;;;;;;;5031316;28;20248;-40
2022/07/08 12:26:58;;;;;;;3.57;1.30;;;;;;;;;;5019863;28;20237;-43
2022/07/08 12:29:26;;;;;;;4.50;1.10;;;;;;;;;;5030527;28;20208;-38
2022/07/08 12:31:53;;;;;;;1.87;1.10;;;;;;;;;;5031142;28;20256;-41
2022/07/08 12:34:22;;;;;;;1.77;0.77;;;;;;;;;;5025689;28;20653;-41
2022/07/08 12:36:53;;;;;;;3.47;0.97;;;;;;;;;;5015455;28;20227;-41
2022/07/08 12:39:22;;;;;;;1.90;0.90;;;;;;;;;;5017923;28;20272;-35
2022/07/08 12:42:01;;;;;;;2.10;0.90;;;;;;;;;;5022600;28;20214;-43
2022/07/08 12:44:28;;;;;;;3.63;1.33;;;;;;;;;;5024487;28;20249;-40
2022/07/08 12:46:55;;;;;;;2.27;1.20;;;;;;;;;;5031241;28;20228;-39
2022/07/08 12:49:23;;;;;;;2.63;0.90;;;;;;;;;;5026553;28;20210;-42
2022/07/08 12:51:51;;;;;;;3.33;1.00;;;;;;;;;;5030914;28;20234;-42
2022/07/08 12:54:18;;;;;;;1.90;0.90;;;;;;;;;;5024635;28;20206;-41
2022/07/08 12:56:45;;;;;;;2.00;1.03;;;;;;;;;;5029751;28;20225;-43
2022/07/08 12:59:13;;;;;;;3.22;0.90;;;;;;;;;;5031844;28;20290;-40
2022/07/08 13:01:41;;;;;;;2.80;0.97;;;;;;;;;;5032014;28;20206;-39
2022/07/08 13:04:08;;;;;;;3.93;1.30;;;;;;;;;;5025968;28;20212;-38
2022/07/08 13:06:35;;;;;;;0.73;0.70;;;;;;;;;;5028306;28;20318;-39
2022/07/08 13:09:02;;;;;;;1.37;0.80;;;;;;;;;;5021336;28;20206;-38
2022/07/08 13:11:29;;;;;;;1.30;0.80;;;;;;;;;;5034434;28;20237;-41
2022/07/08 13:13:57;;;;;;;1.87;0.97;;;;;;;;;;5034245;28;20206;-44
2022/07/08 13:16:25;;;;;;;3.77;1.03;;;;;;;;;;5023117;28;20233;-39
2022/07/08 13:18:52;;;;;;;2.07;1.03;;;;;;;;;;5017841;28;20199;-42
2022/07/08 13:21:19;;;;;;;2.37;0.97;;;;;;;;;;5031098;28;20214;-40
2022/07/08 13:23:46;;;;;;;0.80;0.80;;;;;;;;;;5020887;28;20211;-42
2022/07/08 13:26:15;;;;;;;3.17;0.90;;;;;;;;;;5027651;28;20226;-43
2022/07/08 13:28:42;;;;;;;4.47;1.00;;;;;;;;;;5031237;28;20230;-41
2022/07/08 13:31:09;;;;;;;2.10;0.90;;;;;;;;;;5023939;28;20229;-43
2022/07/08 13:33:38;;;;;;;3.23;1.00;;;;;;;;;;5024437;28;20265;-42
2022/07/08 13:36:05;;;;;;;3.47;0.80;;;;;;;;;;5020752;28;20293;-42
2022/07/08 13:38:32;;;;;;;4.80;1.10;;;;;;;;;;5026094;28;20220;-39
2022/07/08 13:40:59;;;;;;;2.00;1.17;;;;;;;;;;5027018;28;20412;-38
2022/07/08 13:43:26;;;;;;;3.30;1.17;;;;;;;;;;5031006;28;20214;-44
2022/07/08 13:45:54;;;;;;;2.77;0.60;;;;;;;;;;5030721;28;20217;-42
2022/07/08 13:48:21;;;;;;;1.83;0.80;;;;;;;;;;5012441;28;20299;-40
2022/07/08 13:50:49;;;;;;;1.85;0.80;;;;;;;;;;5025151;28;20290;-43
2022/07/08 13:53:16;;;;;;;2.10;1.00;;;;;;;;;;5022665;28;20214;-43
2022/07/08 13:55:43;;;;;;;1.97;1.00;;;;;;;;;;5025287;28;20212;-40
2022/07/08 13:58:11;;;;;;;2.87;1.00;;;;;;;;;;5030104;28;20219;-43
2022/07/08 14:00:38;;;;;;;1.70;0.70;;;;;;;;;;5013006;28;20257;-39
2022/07/08 14:03:05;;;;;;;3.03;0.90;;;;;;;;;;5030432;28;20202;-42
2022/07/08 14:05:32;;;;;;;1.33;0.85;;;;;;;;;;5019688;28;20216;-39
2022/07/08 14:08:01;;;;;;;2.88;1.13;;;;;;;;;;5019946;28;20227;-45
2022/07/08 14:10:28;;;;;;;3.23;1.00;;;;;;;;;;5032673;28;20205;-41
2022/07/08 14:12:56;;;;;;;2.17;1.08;;;;;;;;;;5033291;28;20273;-43
2022/07/08 14:15:23;;;;;;;1.20;0.80;;;;;;;;;;5028223;28;20300;-44
2022/07/08 14:17:50;;;;;;;3.80;1.17;;;;;;;;;;5020688;28;20234;-40
2022/07/08 14:20:17;;;;;;;2.47;0.93;;;;;;;;;;5020351;28;20445;-42
2022/07/08 14:22:44;;;;;;;1.57;0.80;;;;;;;;;;5020469;28;20209;-44
2022/07/08 14:25:13;;;;;;;2.53;1.03;;;;;;;;;;5023600;28;20387;-39
2022/07/08 14:27:40;;;;;;;1.43;0.83;;;;;;;;;;5031153;28;20222;-40
2022/07/08 14:30:09;;;;;;;4.88;0.90;;;;;;;;;;5027403;28;20199;-37
2022/07/08 14:32:37;;;;;;;3.55;1.08;;;;;;;;;;5024356;28;20230;-43
2022/07/08 14:35:04;;;;;;;2.77;1.40;;;;;;;;;;5021645;28;20293;-45
2022/07/08 14:37:31;;;;;;;5.80;0.93;;;;;;;;;;5021063;28;20222;-44
2022/07/08 14:40:03;;;;;;;2.67;1.20;;;;;;;;;;5029602;28;20214;-45
2022/07/08 14:42:32;;;;;;;4.57;1.00;;;;;;;;;;5032836;28;20217;-42
2022/07/08 14:44:59;;;;;;;3.27;1.00;;;;;;;;;;5028908;28;20210;-42
2022/07/08 14:47:26;;;;;;;2.27;1.23;;;;;;;;;;5028268;28;20329;-39
2022/07/08 14:49:53;;;;;;;3.08;0.80;;;;;;;;;;5021437;28;20213;-43
2022/07/08 14:52:20;;;;;;;3.17;1.13;;;;;;;;;;5031833;28;20230;-43
2022/07/08 14:54:48;;;;;;;3.35;1.10;;;;;;;;;;5032303;28;20213;-39
2022/07/08 14:57:15;;;;;;;4.35;1.08;;;;;;;;;;5031694;28;20237;-44
2022/07/08 14:59:43;;;;;;;3.40;0.80;;;;;;;;;;5026112;28;20209;-43
2022/07/08 15:02:10;;;;;;;2.92;1.13;;;;;;;;;;5028152;28;20293;-45
2022/07/08 15:04:39;;;;;;;1.95;0.88;;;;;;;;;;5018373;28;20211;-44